createdAt,value
2022-12-09T00:00:55.581Z,19.73
2022-12-09T00:03:24.013Z,19.75
2022-12-09T00:05:52.173Z,19.75
2022-12-09T00:08:19.918Z,19.74
2022-12-09T00:10:48.281Z,19.75
2022-12-09T00:13:15.811Z,19.73
2022-12-09T00:15:43.447Z,19.73
2022-12-09T00:18:12.806Z,19.73
2022-12-09T00:20:40.219Z,19.85
2022-12-09T00:23:07.673Z,19.92
2022-12-09T00:25:35.242Z,19.94
2022-12-09T00:28:02.909Z,19.93
2022-12-09T00:30:30.326Z,19.94
2022-12-09T00:32:57.754Z,19.93
2022-12-09T00:35:27.252Z,19.92
2022-12-09T00:37:55.214Z,19.94
2022-12-09T00:40:22.712Z,19.94
2022-12-09T00:42:50.114Z,19.95
2022-12-09T00:45:17.603Z,19.90
2022-12-09T00:47:45.223Z,19.90
2022-12-09T00:50:12.788Z,19.92
2022-12-09T00:52:41.521Z,19.96
2022-12-09T00:55:09.917Z,19.90
2022-12-09T00:57:37.443Z,19.88
2022-12-09T01:00:05.464Z,19.91
2022-12-09T01:02:33.377Z,19.92
2022-12-09T01:05:01.441Z,19.92
2022-12-09T01:07:29.037Z,19.89
2022-12-09T01:09:57.787Z,19.91
2022-12-09T01:12:25.188Z,19.89
2022-12-09T01:14:52.575Z,19.90
2022-12-09T01:17:20.609Z,19.88
2022-12-09T01:19:48.260Z,19.86
2022-12-09T01:22:16.007Z,19.95
2022-12-09T01:24:43.418Z,19.97
2022-12-09T01:27:12.259Z,20.00
2022-12-09T01:29:39.690Z,20.02
2022-12-09T01:32:07.460Z,20.04
2022-12-09T01:34:35.009Z,20.06
2022-12-09T01:37:02.431Z,20.08
2022-12-09T01:39:31.062Z,20.05
2022-12-09T01:41:58.687Z,20.08
2022-12-09T01:44:27.913Z,20.17
2022-12-09T01:46:55.964Z,20.18
2022-12-09T01:49:26.008Z,20.19
2022-12-09T01:51:57.576Z,20.16
2022-12-09T01:54:25.842Z,20.13
2022-12-09T01:56:53.552Z,20.08
2022-12-09T01:59:21.183Z,20.10
2022-12-09T02:01:51.065Z,20.08
2022-12-09T02:04:19.059Z,20.09
2022-12-09T02:06:46.515Z,20.09
2022-12-09T02:09:15.529Z,20.07
2022-12-09T02:11:52.999Z,20.10
2022-12-09T02:14:22.392Z,20.07
2022-12-09T02:16:57.455Z,20.08
2022-12-09T02:19:40.565Z,20.07
2022-12-09T02:22:08.035Z,20.07
2022-12-09T02:24:39.336Z,20.08
2022-12-09T02:27:10.636Z,20.09
2022-12-09T02:29:47.238Z,20.07
2022-12-09T02:32:25.356Z,20.08
2022-12-09T02:34:55.884Z,20.07
2022-12-09T02:37:25.287Z,20.04
2022-12-09T02:39:57.120Z,20.08
2022-12-09T02:42:28.648Z,20.03
2022-12-09T02:44:56.975Z,20.05
2022-12-09T02:47:26.564Z,20.08
2022-12-09T02:49:56.895Z,20.06
2022-12-09T02:52:24.757Z,20.07
2022-12-09T02:54:52.730Z,20.06
2022-12-09T02:57:29.069Z,20.05
2022-12-09T02:59:56.863Z,20.04
2022-12-09T03:02:28.282Z,20.05
2022-12-09T03:05:04.749Z,20.04
2022-12-09T03:07:33.629Z,20.03
2022-12-09T03:10:05.104Z,20.05
2022-12-09T03:12:33.671Z,20.02
2022-12-09T03:15:01.393Z,20.02
2022-12-09T03:17:30.470Z,20.07
2022-12-09T03:20:00.304Z,20.05
2022-12-09T03:22:29.256Z,20.02
2022-12-09T03:24:58.833Z,20.01
2022-12-09T03:27:27.784Z,20.05
2022-12-09T03:29:55.219Z,20.01
2022-12-09T03:32:24.587Z,20.03
2022-12-09T03:34:52.085Z,20.03
2022-12-09T03:37:21.141Z,20.01
2022-12-09T03:39:48.874Z,20.03
2022-12-09T03:42:18.430Z,20.00
2022-12-09T03:44:46.308Z,20.00
2022-12-09T03:47:13.833Z,20.00
2022-12-09T03:49:41.314Z,20.04
2022-12-09T03:52:10.802Z,20.02
2022-12-09T03:54:42.702Z,20.02
2022-12-09T03:57:14.082Z,20.02
2022-12-09T03:59:47.851Z,19.98
2022-12-09T04:02:15.687Z,20.01
2022-12-09T04:04:43.529Z,19.98
2022-12-09T04:07:11.066Z,20.00
2022-12-09T04:09:43.193Z,19.99
2022-12-09T04:12:11.039Z,20.00
2022-12-09T04:14:38.556Z,19.97
2022-12-09T04:17:06.052Z,19.98
2022-12-09T04:19:33.485Z,19.99
2022-12-09T04:22:01.286Z,19.99
2022-12-09T04:24:29.017Z,19.98
2022-12-09T04:26:58.057Z,19.95
2022-12-09T04:29:25.474Z,19.98
2022-12-09T04:31:53.188Z,19.97
2022-12-09T04:34:20.756Z,19.97
2022-12-09T04:36:49.300Z,19.96
2022-12-09T04:39:17.020Z,19.93
2022-12-09T04:41:44.637Z,19.92
2022-12-09T04:44:13.544Z,19.93
2022-12-09T04:46:41.244Z,19.94
2022-12-09T04:49:08.936Z,19.93
2022-12-09T04:51:39.957Z,19.96
2022-12-09T04:54:08.183Z,19.95
2022-12-09T04:56:35.630Z,19.94
2022-12-09T04:59:03.065Z,19.92
2022-12-09T05:01:32.471Z,19.94
2022-12-09T05:04:00.514Z,19.94
2022-12-09T05:06:28.340Z,19.94
2022-12-09T05:08:55.986Z,19.93
2022-12-09T05:11:24.259Z,19.91
2022-12-09T05:13:52.526Z,19.93
2022-12-09T05:16:20.303Z,19.92
2022-12-09T05:18:49.908Z,19.88
2022-12-09T05:21:19.400Z,19.90
2022-12-09T05:23:47.238Z,19.92
2022-12-09T05:26:18.622Z,19.92
2022-12-09T05:28:46.281Z,19.90
2022-12-09T05:31:14.973Z,19.89
2022-12-09T05:33:43.320Z,19.90
2022-12-09T05:36:12.485Z,19.89
2022-12-09T05:38:40.417Z,19.92
2022-12-09T05:41:08.147Z,19.92
2022-12-09T05:43:36.878Z,19.91
2022-12-09T05:46:04.925Z,19.93
2022-12-09T05:48:32.575Z,19.92
2022-12-09T05:51:00.627Z,19.94
2022-12-09T05:53:29.730Z,19.90
2022-12-09T05:55:57.488Z,19.89
2022-12-09T05:58:25.221Z,19.90
2022-12-09T06:00:56.409Z,19.90
2022-12-09T06:03:24.351Z,19.93
2022-12-09T06:05:52.388Z,19.99
2022-12-09T06:08:20.449Z,19.98
2022-12-09T06:10:49.540Z,20.01
2022-12-09T06:13:17.075Z,19.98
2022-12-09T06:15:44.713Z,19.98
2022-12-09T06:18:12.320Z,19.91
2022-12-09T06:20:40.546Z,19.86
2022-12-09T06:23:08.059Z,19.83
2022-12-09T06:25:35.653Z,19.82
2022-12-09T06:28:04.736Z,19.79
2022-12-09T06:30:32.514Z,19.78
2022-12-09T06:33:00.040Z,19.83
2022-12-09T06:35:27.967Z,19.78
2022-12-09T06:37:55.956Z,19.82
2022-12-09T06:40:23.541Z,19.95
2022-12-09T06:42:51.390Z,19.97
2022-12-09T06:45:20.588Z,19.94
2022-12-09T06:47:48.457Z,20.00
2022-12-09T06:50:16.314Z,20.02
2022-12-09T06:52:44.189Z,19.97
2022-12-09T06:55:12.732Z,19.92
2022-12-09T06:57:40.753Z,19.90
2022-12-09T07:00:09.817Z,19.82
2022-12-09T07:02:39.060Z,19.85
2022-12-09T07:05:08.343Z,19.78
2022-12-09T07:07:36.281Z,19.76
2022-12-09T07:10:04.098Z,19.70
2022-12-09T07:12:31.694Z,19.71
2022-12-09T07:14:59.394Z,19.71
2022-12-09T07:17:27.090Z,19.71
2022-12-09T07:19:58.975Z,19.73
2022-12-09T07:22:29.587Z,19.72
2022-12-09T07:24:57.308Z,19.72
2022-12-09T07:27:25.098Z,19.71
2022-12-09T07:29:52.899Z,19.71
2022-12-09T07:32:20.708Z,19.72
2022-12-09T07:34:48.633Z,19.68
2022-12-09T07:37:17.635Z,19.67
2022-12-09T07:39:45.479Z,19.67
2022-12-09T07:42:13.244Z,19.67
2022-12-09T07:44:52.230Z,19.66
2022-12-09T07:47:19.871Z,19.63
2022-12-09T07:49:47.635Z,19.64
2022-12-09T07:52:16.481Z,19.63
2022-12-09T07:54:44.305Z,19.60
2022-12-09T07:57:11.982Z,19.62
2022-12-09T07:59:39.727Z,19.59
2022-12-09T08:02:07.670Z,19.61
2022-12-09T08:04:36.510Z,19.62
2022-12-09T08:07:04.647Z,19.61
2022-12-09T08:09:33.940Z,19.60
2022-12-09T08:12:01.948Z,19.55
2022-12-09T08:14:29.696Z,19.56
2022-12-09T08:16:57.311Z,19.61
2022-12-09T08:19:24.853Z,19.55
2022-12-09T08:21:54.784Z,19.58
2022-12-09T08:24:22.808Z,19.57
2022-12-09T08:26:52.103Z,19.57
2022-12-09T08:29:20.696Z,19.56
2022-12-09T08:31:48.417Z,19.55
2022-12-09T08:34:16.258Z,19.53
2022-12-09T08:36:44.263Z,19.54
2022-12-09T08:39:12.326Z,19.56
2022-12-09T08:41:40.236Z,19.57
2022-12-09T08:44:10.398Z,19.56
2022-12-09T08:46:39.089Z,19.54
2022-12-09T08:49:07.316Z,19.54
2022-12-09T08:51:35.173Z,19.55
2022-12-09T08:54:03.395Z,19.54
2022-12-09T08:56:31.365Z,19.55
2022-12-09T08:58:58.961Z,19.55
2022-12-09T09:01:32.258Z,19.53
2022-12-09T09:04:01.487Z,19.53
2022-12-09T09:06:29.436Z,19.53
2022-12-09T09:08:57.568Z,19.54
2022-12-09T09:11:25.478Z,19.55
2022-12-09T09:13:53.816Z,19.53
2022-12-09T09:16:22.801Z,19.56
2022-12-09T09:18:51.768Z,19.48
2022-12-09T09:21:21.065Z,18.99
2022-12-09T09:23:48.805Z,18.88
2022-12-09T09:26:17.310Z,18.84
2022-12-09T09:28:45.171Z,18.93
2022-12-09T09:31:13.753Z,19.07
2022-12-09T09:33:41.901Z,19.15
2022-12-09T09:36:13.593Z,19.17
2022-12-09T09:38:41.301Z,19.19
2022-12-09T09:41:15.472Z,19.18
2022-12-09T09:43:44.628Z,19.19
2022-12-09T09:46:12.424Z,19.21
2022-12-09T09:48:40.047Z,19.30
2022-12-09T09:51:11.815Z,19.27
2022-12-09T09:53:40.479Z,19.24
2022-12-09T09:56:15.113Z,19.28
2022-12-09T09:58:45.208Z,19.27
2022-12-09T10:01:14.596Z,19.28
2022-12-09T10:03:48.903Z,19.28
2022-12-09T10:06:27.017Z,19.33
2022-12-09T10:08:59.331Z,19.34
2022-12-09T10:11:30.720Z,19.35
2022-12-09T10:14:02.796Z,19.33
2022-12-09T10:16:33.054Z,19.28
2022-12-09T10:19:07.990Z,19.36
2022-12-09T10:21:41.609Z,19.38
2022-12-09T10:24:17.428Z,19.41
2022-12-09T10:26:45.143Z,19.42
2022-12-09T10:29:26.548Z,19.39
2022-12-09T10:31:54.051Z,19.29
2022-12-09T10:34:22.222Z,19.24
2022-12-09T10:36:51.298Z,19.20
2022-12-09T10:39:21.150Z,19.19
2022-12-09T10:42:09.042Z,19.18
2022-12-09T10:44:36.802Z,19.17
2022-12-09T10:47:06.195Z,19.15
2022-12-09T10:49:34.837Z,19.16
2022-12-09T10:52:04.627Z,19.13
2022-12-09T10:54:35.165Z,19.11
2022-12-09T10:57:08.931Z,19.08
2022-12-09T10:59:36.765Z,19.12
2022-12-09T11:02:17.520Z,19.08
2022-12-09T11:04:45.987Z,19.05
2022-12-09T11:07:17.593Z,19.21
2022-12-09T11:09:47.976Z,19.34
2022-12-09T11:12:18.604Z,19.40
2022-12-09T11:14:51.109Z,19.46
2022-12-09T11:17:20.402Z,19.46
2022-12-09T11:19:50.777Z,19.41
2022-12-09T11:22:36.430Z,19.36
2022-12-09T11:25:18.523Z,19.36
2022-12-09T11:27:50.263Z,19.31
2022-12-09T11:30:19.116Z,19.32
2022-12-09T11:32:59.821Z,19.29
2022-12-09T11:35:30.651Z,19.28
2022-12-09T11:38:01.483Z,19.32
2022-12-09T11:40:29.257Z,19.34
2022-12-09T11:42:57.051Z,19.33
2022-12-09T11:45:27.747Z,19.32
2022-12-09T11:48:25.830Z,19.34
2022-12-09T11:50:44.401Z,19.34
2022-12-09T11:53:26.735Z,19.34
2022-12-09T11:55:55.334Z,19.35
2022-12-09T11:58:25.141Z,19.40
2022-12-09T12:00:56.454Z,19.42
2022-12-09T12:03:24.898Z,19.41
2022-12-09T12:05:53.506Z,19.45
2022-12-09T12:08:28.157Z,19.45
2022-12-09T12:10:58.901Z,19.45
2022-12-09T12:13:28.807Z,19.42
2022-12-09T12:16:01.347Z,19.43
2022-12-09T12:18:30.456Z,19.54
2022-12-09T12:21:12.094Z,19.64
2022-12-09T12:23:51.889Z,19.65
2022-12-09T12:26:20.672Z,19.70
2022-12-09T12:29:11.074Z,19.72
2022-12-09T12:31:55.686Z,19.67
2022-12-09T12:34:27.395Z,19.66
2022-12-09T12:36:59.236Z,19.64
2022-12-09T12:39:39.309Z,19.64
2022-12-09T12:42:14.412Z,19.63
2022-12-09T12:45:04.487Z,19.64
2022-12-09T12:47:35.192Z,19.63
2022-12-09T12:50:16.996Z,19.53
2022-12-09T12:52:56.222Z,19.48
2022-12-09T12:55:37.189Z,19.40
2022-12-09T12:58:07.352Z,19.33
2022-12-09T13:00:37.507Z,19.30
2022-12-09T13:03:10.840Z,19.30
2022-12-09T13:05:39.008Z,19.29
2022-12-09T13:08:08.271Z,19.29
2022-12-09T13:10:39.526Z,19.28
2022-12-09T13:13:07.165Z,19.25
2022-12-09T13:15:38.532Z,19.26
2022-12-09T13:18:08.337Z,19.28
2022-12-09T13:20:42.005Z,19.27
2022-12-09T13:23:14.197Z,19.29
2022-12-09T13:25:46.264Z,19.28
2022-12-09T13:28:15.714Z,19.30
2022-12-09T13:30:49.677Z,19.29
2022-12-09T13:33:29.439Z,19.32
2022-12-09T13:36:02.777Z,19.33
2022-12-09T13:38:36.700Z,19.33
2022-12-09T13:41:56.798Z,19.33
2022-12-09T13:44:24.209Z,19.36
2022-12-09T13:46:51.641Z,19.33
2022-12-09T13:49:19.212Z,19.36
2022-12-09T13:51:48.188Z,19.35
2022-12-09T13:54:15.944Z,19.27
2022-12-09T13:56:44.916Z,19.23
2022-12-09T13:59:41.093Z,19.22
2022-12-09T14:02:20.727Z,19.21
2022-12-09T14:04:52.700Z,19.21
2022-12-09T14:07:23.383Z,19.20
2022-12-09T14:09:51.457Z,19.21
2022-12-09T14:12:57.638Z,19.20
2022-12-09T14:15:37.134Z,19.19
2022-12-09T14:18:05.470Z,19.21
2022-12-09T14:20:35.154Z,19.21
2022-12-09T14:23:13.273Z,19.21
2022-12-09T14:25:57.656Z,19.20
2022-12-09T14:28:41.536Z,19.22
2022-12-09T14:31:10.301Z,19.19
2022-12-09T14:33:38.598Z,19.22
2022-12-09T14:36:09.255Z,19.19
2022-12-09T14:38:54.308Z,19.19
2022-12-09T14:41:31.012Z,19.21
2022-12-09T14:44:04.533Z,19.20
2022-12-09T14:46:34.483Z,19.22
2022-12-09T14:49:03.227Z,19.22
2022-12-09T14:51:35.330Z,19.22
2022-12-09T14:54:05.024Z,19.24
2022-12-09T14:56:32.723Z,19.33
2022-12-09T14:59:01.604Z,19.38
2022-12-09T15:01:29.019Z,19.38
2022-12-09T15:03:58.773Z,19.43
2022-12-09T15:06:26.907Z,19.46
2022-12-09T15:08:55.701Z,19.46
2022-12-09T15:11:24.185Z,19.45
2022-12-09T15:13:53.779Z,19.41
2022-12-09T15:16:23.367Z,19.40
2022-12-09T15:18:50.835Z,19.39
2022-12-09T15:21:29.267Z,19.39
2022-12-09T15:23:56.723Z,19.43
2022-12-09T15:26:26.338Z,19.46
2022-12-09T15:28:55.311Z,19.40
2022-12-09T15:31:23.486Z,19.43
2022-12-09T15:33:51.775Z,19.49
2022-12-09T15:36:21.454Z,19.48
2022-12-09T15:38:51.184Z,19.49
2022-12-09T15:41:36.534Z,19.48
2022-12-09T15:44:06.329Z,19.50
2022-12-09T15:46:33.749Z,19.48
2022-12-09T15:49:01.254Z,19.45
2022-12-09T15:51:28.706Z,19.45
2022-12-09T15:53:58.637Z,19.44
2022-12-09T15:56:27.392Z,19.45
2022-12-09T15:58:55.648Z,19.48
2022-12-09T16:01:23.997Z,19.45
2022-12-09T16:03:51.758Z,19.43
2022-12-09T16:06:24.564Z,19.42
2022-12-09T16:08:52.002Z,19.51
2022-12-09T16:11:39.571Z,19.58
2022-12-09T16:14:06.977Z,19.57
2022-12-09T16:16:39.759Z,19.51
2022-12-09T16:19:07.224Z,19.51
2022-12-09T16:21:34.968Z,19.49
2022-12-09T16:24:06.627Z,19.49
2022-12-09T16:26:37.490Z,19.48
2022-12-09T16:29:07.070Z,19.49
2022-12-09T16:31:34.536Z,19.46
2022-12-09T16:34:02.020Z,19.45
2022-12-09T16:36:30.404Z,19.45
2022-12-09T16:39:33.237Z,19.51
2022-12-09T16:42:02.885Z,19.46
2022-12-09T16:44:33.908Z,19.48
2022-12-09T16:47:12.548Z,19.57
2022-12-09T16:49:40.736Z,19.60
2022-12-09T16:52:13.785Z,19.63
2022-12-09T16:54:41.346Z,19.60
2022-12-09T16:57:12.518Z,19.60
2022-12-09T16:59:41.421Z,19.65
2022-12-09T17:02:17.203Z,19.60
2022-12-09T17:04:44.680Z,19.56
2022-12-09T17:07:12.084Z,19.58
2022-12-09T17:09:39.473Z,19.57
2022-12-09T17:12:07.555Z,19.56
2022-12-09T17:14:34.980Z,19.57
2022-12-09T17:17:03.811Z,19.58
2022-12-09T17:19:33.093Z,19.59
2022-12-09T17:22:00.536Z,19.55
2022-12-09T17:24:27.935Z,19.58
2022-12-09T17:26:55.400Z,19.56
2022-12-09T17:29:22.809Z,19.54
2022-12-09T17:31:51.815Z,19.52
2022-12-09T17:34:20.622Z,19.52
2022-12-09T17:36:48.053Z,19.50
2022-12-09T17:39:16.100Z,19.52
2022-12-09T17:41:43.607Z,19.49
2022-12-09T17:44:11.026Z,19.52
2022-12-09T17:46:38.438Z,19.53
2022-12-09T17:49:05.840Z,19.51
2022-12-09T17:51:36.573Z,19.52
2022-12-09T17:54:04.146Z,19.53
2022-12-09T17:56:31.526Z,19.52
2022-12-09T17:59:00.776Z,19.55
2022-12-09T18:01:28.208Z,19.47
2022-12-09T18:03:59.374Z,19.47
2022-12-09T18:06:31.573Z,19.46
2022-12-09T18:09:00.284Z,19.42
2022-12-09T18:11:27.671Z,19.49
2022-12-09T18:13:55.082Z,19.47
2022-12-09T18:16:22.582Z,19.51
2022-12-09T18:18:50.083Z,19.50
2022-12-09T18:21:19.511Z,19.46
2022-12-09T18:23:48.076Z,19.49
2022-12-09T18:26:18.433Z,19.51
2022-12-09T18:28:45.927Z,19.48
2022-12-09T18:31:14.516Z,19.48
2022-12-09T18:33:42.205Z,19.49
2022-12-09T18:36:11.256Z,19.45
2022-12-09T18:38:38.729Z,19.52
2022-12-09T18:41:10.432Z,19.48
2022-12-09T18:43:39.820Z,19.49
2022-12-09T18:46:08.773Z,19.48
2022-12-09T18:48:36.343Z,19.47
2022-12-09T18:51:03.803Z,19.49
2022-12-09T18:53:31.219Z,19.50
2022-12-09T18:55:58.641Z,19.44
2022-12-09T18:58:42.876Z,19.46
2022-12-09T19:01:16.455Z,19.42
2022-12-09T19:03:43.902Z,19.45
2022-12-09T19:06:21.966Z,19.45
2022-12-09T19:08:53.508Z,19.40
2022-12-09T19:11:21.866Z,19.39
2022-12-09T19:13:49.361Z,19.37
2022-12-09T19:16:18.147Z,19.36
2022-12-09T19:18:45.628Z,19.32
2022-12-09T19:21:14.565Z,19.37
2022-12-09T19:23:43.366Z,19.35
2022-12-09T19:26:13.947Z,19.36
2022-12-09T19:28:45.191Z,19.36
2022-12-09T19:31:22.439Z,19.34
2022-12-09T19:33:49.914Z,19.36
2022-12-09T19:36:17.362Z,19.35
2022-12-09T19:38:44.856Z,19.36
2022-12-09T19:41:12.266Z,19.34
2022-12-09T19:43:39.687Z,19.53
2022-12-09T19:46:08.024Z,19.56
2022-12-09T19:48:37.353Z,19.59
2022-12-09T19:51:05.257Z,19.63
2022-12-09T19:53:32.896Z,19.54
2022-12-09T19:56:01.675Z,19.54
2022-12-09T19:58:29.336Z,19.57
2022-12-09T20:00:56.742Z,19.57
2022-12-09T20:03:24.247Z,19.54
2022-12-09T20:05:54.195Z,19.57
2022-12-09T20:08:21.634Z,19.56
2022-12-09T20:10:49.071Z,19.56
2022-12-09T20:13:16.492Z,19.59
2022-12-09T20:15:44.003Z,19.59
2022-12-09T20:18:14.063Z,19.56
2022-12-09T20:20:45.703Z,19.54
2022-12-09T20:23:17.491Z,19.56
2022-12-09T20:25:44.899Z,19.53
2022-12-09T20:28:12.309Z,19.59
2022-12-09T20:30:39.724Z,19.52
2022-12-09T20:33:07.118Z,19.56
2022-12-09T20:35:36.381Z,19.56
2022-12-09T20:38:03.950Z,19.63
2022-12-09T20:40:36.267Z,19.65
2022-12-09T20:43:07.749Z,19.60
2022-12-09T20:45:35.185Z,19.52
2022-12-09T20:48:02.622Z,19.46
2022-12-09T20:50:33.673Z,19.44
2022-12-09T20:53:05.699Z,19.41
2022-12-09T20:55:34.399Z,19.41
2022-12-09T20:58:01.827Z,19.40
2022-12-09T21:00:29.225Z,19.41
2022-12-09T21:02:56.644Z,19.41
2022-12-09T21:05:24.097Z,19.40
2022-12-09T21:07:51.554Z,19.39
2022-12-09T21:10:19.033Z,19.40
2022-12-09T21:12:47.749Z,19.40
2022-12-09T21:15:15.158Z,19.43
2022-12-09T21:17:42.579Z,19.35
2022-12-09T21:20:11.090Z,19.38
2022-12-09T21:22:39.858Z,19.35
2022-12-09T21:25:09.323Z,19.35
2022-12-09T21:27:36.770Z,19.36
2022-12-09T21:30:06.949Z,19.36
2022-12-09T21:32:34.615Z,19.36
2022-12-09T21:35:02.140Z,19.34
2022-12-09T21:37:29.605Z,19.37
2022-12-09T21:39:57.007Z,19.38
2022-12-09T21:42:24.412Z,19.34
2022-12-09T21:44:51.842Z,19.33
2022-12-09T21:47:20.536Z,19.36
2022-12-09T21:49:47.928Z,19.35
2022-12-09T21:52:15.313Z,19.36
2022-12-09T21:54:43.509Z,19.35
2022-12-09T21:57:10.923Z,19.36
2022-12-09T21:59:38.331Z,19.34
2022-12-09T22:02:06.111Z,19.35
2022-12-09T22:04:34.862Z,19.38
2022-12-09T22:07:02.271Z,19.35
2022-12-09T22:09:29.679Z,19.38
2022-12-09T22:11:57.095Z,19.33
2022-12-09T22:14:24.502Z,19.34
2022-12-09T22:16:51.934Z,19.34
2022-12-09T22:19:20.797Z,19.34
2022-12-09T22:21:49.557Z,19.34
2022-12-09T22:24:17.036Z,19.31
2022-12-09T22:26:45.095Z,19.34
2022-12-09T22:29:12.973Z,19.40
2022-12-09T22:31:40.612Z,19.34
2022-12-09T22:34:09.245Z,19.37
2022-12-09T22:36:37.004Z,19.35
2022-12-09T22:39:07.436Z,19.40
2022-12-09T22:41:34.972Z,19.40
2022-12-09T22:44:02.371Z,19.39
2022-12-09T22:46:30.944Z,19.45
2022-12-09T22:49:00.476Z,19.58
2022-12-09T22:51:29.157Z,19.68
2022-12-09T22:53:57.182Z,19.70
2022-12-09T22:56:26.404Z,19.56
2022-12-09T22:58:54.150Z,19.45
2022-12-09T23:01:22.362Z,19.41
2022-12-09T23:03:49.798Z,19.40
2022-12-09T23:06:17.274Z,19.38
2022-12-09T23:08:45.060Z,19.36
2022-12-09T23:11:13.515Z,19.36
2022-12-09T23:13:42.231Z,19.32
2022-12-09T23:16:12.219Z,19.36
2022-12-09T23:18:39.676Z,19.44
2022-12-09T23:21:08.190Z,19.56
2022-12-09T23:23:35.608Z,19.66
2022-12-09T23:26:04.826Z,19.60
2022-12-09T23:28:33.239Z,19.59
2022-12-09T23:31:03.583Z,19.57
2022-12-09T23:33:31.304Z,19.56
2022-12-09T23:35:58.725Z,19.61
2022-12-09T23:38:26.181Z,19.56
2022-12-09T23:40:53.639Z,19.56
2022-12-09T23:43:21.163Z,19.58
2022-12-09T23:45:48.602Z,19.58
2022-12-09T23:48:17.304Z,19.57
2022-12-09T23:50:44.706Z,19.56
2022-12-09T23:53:12.099Z,19.55
2022-12-09T23:55:42.374Z,19.54
2022-12-09T23:58:09.870Z,19.55
